sensor_id;sensor_type;location;lat;lon;timestamp;pressure;altitude;pressure_sealevel;temperature;humidity
34235;BME280;20500;49.856;20.290;2022-10-26T00:00:47;99247.51;;;9.42;81.13
34235;BME280;20500;49.856;20.290;2022-10-26T00:03:55;99249.02;;;9.43;81.24
34235;BME280;20500;49.856;20.290;2022-10-26T00:07:01;99248.81;;;9.46;81.38
34235;BME280;20500;49.856;20.290;2022-10-26T00:10:08;99253.86;;;9.48;81.36
34235;BME280;20500;49.856;20.290;2022-10-26T00:13:14;99254.16;;;9.49;81.35
34235;BME280;20500;49.856;20.290;2022-10-26T00:16:22;99255.11;;;9.50;81.39
34235;BME280;20500;49.856;20.290;2022-10-26T00:19:27;99260.28;;;9.47;81.43
34235;BME280;20500;49.856;20.290;2022-10-26T00:22:33;99261.80;;;9.49;81.73
34235;BME280;20500;49.856;20.290;2022-10-26T00:25:39;99257.27;;;9.52;81.78
34235;BME280;20500;49.856;20.290;2022-10-26T00:28:44;99258.65;;;9.56;81.76
34235;BME280;20500;49.856;20.290;2022-10-26T00:31:50;99259.46;;;9.58;81.65
34235;BME280;20500;49.856;20.290;2022-10-26T00:34:55;99263.84;;;9.60;81.72
34235;BME280;20500;49.856;20.290;2022-10-26T00:38:19;99264.31;;;9.62;81.77
34235;BME280;20500;49.856;20.290;2022-10-26T00:41:27;99263.09;;;9.65;81.85
34235;BME280;20500;49.856;20.290;2022-10-26T00:44:57;99263.45;;;9.68;81.84
34235;BME280;20500;49.856;20.290;2022-10-26T00:48:06;99260.80;;;9.72;81.88
34235;BME280;20500;49.856;20.290;2022-10-26T00:51:21;99260.74;;;9.76;82.00
34235;BME280;20500;49.856;20.290;2022-10-26T00:54:28;99261.31;;;9.77;81.83
34235;BME280;20500;49.856;20.290;2022-10-26T00:57:35;99258.63;;;9.77;81.91
34235;BME280;20500;49.856;20.290;2022-10-26T01:00:42;99255.63;;;9.76;81.91
34235;BME280;20500;49.856;20.290;2022-10-26T01:03:46;99260.42;;;9.77;82.02
34235;BME280;20500;49.856;20.290;2022-10-26T01:06:53;99262.80;;;9.77;82.10
34235;BME280;20500;49.856;20.290;2022-10-26T01:10:00;99266.48;;;9.76;82.02
34235;BME280;20500;49.856;20.290;2022-10-26T01:13:06;99268.37;;;9.75;82.08
34235;BME280;20500;49.856;20.290;2022-10-26T01:16:18;99270.27;;;9.76;82.07
34235;BME280;20500;49.856;20.290;2022-10-26T01:19:51;99268.54;;;9.79;82.23
34235;BME280;20500;49.856;20.290;2022-10-26T01:23:09;99273.09;;;9.79;82.19
34235;BME280;20500;49.856;20.290;2022-10-26T01:30:24;99269.23;;;9.78;82.15
34235;BME280;20500;49.856;20.290;2022-10-26T01:33:38;99269.45;;;9.73;82.03
34235;BME280;20500;49.856;20.290;2022-10-26T01:36:51;99270.49;;;9.65;82.04
34235;BME280;20500;49.856;20.290;2022-10-26T01:40:05;99267.41;;;9.60;82.20
34235;BME280;20500;49.856;20.290;2022-10-26T01:43:14;99269.05;;;9.57;82.10
34235;BME280;20500;49.856;20.290;2022-10-26T01:46:22;99269.38;;;9.52;82.16
34235;BME280;20500;49.856;20.290;2022-10-26T01:49:30;99264.45;;;9.47;82.20
34235;BME280;20500;49.856;20.290;2022-10-26T01:52:37;99263.34;;;9.45;82.18
34235;BME280;20500;49.856;20.290;2022-10-26T01:55:47;99259.88;;;9.38;82.22
34235;BME280;20500;49.856;20.290;2022-10-26T01:59:21;99262.30;;;9.33;82.30
34235;BME280;20500;49.856;20.290;2022-10-26T02:02:39;99262.59;;;9.30;82.24
34235;BME280;20500;49.856;20.290;2022-10-26T02:06:04;99263.64;;;9.24;82.29
34235;BME280;20500;49.856;20.290;2022-10-26T02:09:19;99264.29;;;9.18;82.30
34235;BME280;20500;49.856;20.290;2022-10-26T02:12:32;99264.45;;;9.13;82.39
34235;BME280;20500;49.856;20.290;2022-10-26T02:15:46;99263.91;;;9.10;82.21
34235;BME280;20500;49.856;20.290;2022-10-26T02:18:59;99267.52;;;9.07;82.32
34235;BME280;20500;49.856;20.290;2022-10-26T02:22:11;99270.55;;;9.02;82.39
34235;BME280;20500;49.856;20.290;2022-10-26T02:25:21;99266.74;;;8.99;82.32
34235;BME280;20500;49.856;20.290;2022-10-26T02:28:32;99266.80;;;8.95;82.20
34235;BME280;20500;49.856;20.290;2022-10-26T02:31:41;99273.23;;;8.91;82.13
34235;BME280;20500;49.856;20.290;2022-10-26T02:34:49;99272.20;;;8.85;82.06
34235;BME280;20500;49.856;20.290;2022-10-26T02:37:57;99270.71;;;8.83;82.26
34235;BME280;20500;49.856;20.290;2022-10-26T02:41:05;99271.87;;;8.76;81.97
34235;BME280;20500;49.856;20.290;2022-10-26T02:44:15;99276.60;;;8.68;81.90
34235;BME280;20500;49.856;20.290;2022-10-26T02:47:25;99281.73;;;8.61;82.01
34235;BME280;20500;49.856;20.290;2022-10-26T02:50:35;99283.27;;;8.53;81.90
34235;BME280;20500;49.856;20.290;2022-10-26T02:53:47;99281.44;;;8.46;82.04
34235;BME280;20500;49.856;20.290;2022-10-26T02:56:56;99283.80;;;8.41;82.19
34235;BME280;20500;49.856;20.290;2022-10-26T03:00:05;99285.48;;;8.39;82.31
34235;BME280;20500;49.856;20.290;2022-10-26T03:03:11;99285.34;;;8.39;82.28
34235;BME280;20500;49.856;20.290;2022-10-26T03:06:22;99289.07;;;8.38;82.39
34235;BME280;20500;49.856;20.290;2022-10-26T03:09:28;99288.12;;;8.38;82.49
34235;BME280;20500;49.856;20.290;2022-10-26T03:12:34;99291.55;;;8.38;82.57
34235;BME280;20500;49.856;20.290;2022-10-26T03:15:40;99294.13;;;8.38;82.69
34235;BME280;20500;49.856;20.290;2022-10-26T03:18:45;99293.97;;;8.38;82.61
34235;BME280;20500;49.856;20.290;2022-10-26T03:21:51;99292.28;;;8.37;82.80
34235;BME280;20500;49.856;20.290;2022-10-26T03:24:56;99291.96;;;8.40;82.83
34235;BME280;20500;49.856;20.290;2022-10-26T03:28:03;99292.64;;;8.41;82.75
34235;BME280;20500;49.856;20.290;2022-10-26T03:31:09;99288.04;;;8.42;82.71
34235;BME280;20500;49.856;20.290;2022-10-26T03:34:14;99282.75;;;8.43;82.72
34235;BME280;20500;49.856;20.290;2022-10-26T03:37:20;99284.51;;;8.41;82.67
34235;BME280;20500;49.856;20.290;2022-10-26T03:40:25;99289.61;;;8.43;82.73
34235;BME280;20500;49.856;20.290;2022-10-26T03:43:31;99290.18;;;8.43;82.58
34235;BME280;20500;49.856;20.290;2022-10-26T03:46:36;99290.46;;;8.38;82.40
34235;BME280;20500;49.856;20.290;2022-10-26T03:49:42;99297.34;;;8.33;82.52
34235;BME280;20500;49.856;20.290;2022-10-26T03:52:48;99301.71;;;8.29;82.65
34235;BME280;20500;49.856;20.290;2022-10-26T03:55:54;99302.67;;;8.26;82.68
34235;BME280;20500;49.856;20.290;2022-10-26T03:59:00;99303.66;;;8.26;82.69
34235;BME280;20500;49.856;20.290;2022-10-26T04:02:06;99304.24;;;8.22;82.45
34235;BME280;20500;49.856;20.290;2022-10-26T04:05:11;99301.51;;;8.15;82.59
34235;BME280;20500;49.856;20.290;2022-10-26T04:08:17;99299.71;;;8.10;82.44
34235;BME280;20500;49.856;20.290;2022-10-26T04:11:23;99300.35;;;8.06;82.53
34235;BME280;20500;49.856;20.290;2022-10-26T04:14:28;99301.83;;;8.02;82.66
34235;BME280;20500;49.856;20.290;2022-10-26T04:17:34;99301.64;;;8.00;82.76
34235;BME280;20500;49.856;20.290;2022-10-26T04:20:40;99301.23;;;7.97;82.65
34235;BME280;20500;49.856;20.290;2022-10-26T04:23:44;99298.83;;;7.93;82.66
34235;BME280;20500;49.856;20.290;2022-10-26T04:26:49;99301.48;;;7.86;82.59
34235;BME280;20500;49.856;20.290;2022-10-26T04:29:55;99302.25;;;7.82;82.61
34235;BME280;20500;49.856;20.290;2022-10-26T04:33:01;99303.10;;;7.79;82.61
34235;BME280;20500;49.856;20.290;2022-10-26T04:36:08;99303.41;;;7.75;82.56
34235;BME280;20500;49.856;20.290;2022-10-26T04:39:13;99300.77;;;7.72;82.47
34235;BME280;20500;49.856;20.290;2022-10-26T04:42:19;99299.63;;;7.62;82.42
34235;BME280;20500;49.856;20.290;2022-10-26T04:45:25;99298.41;;;7.58;82.67
34235;BME280;20500;49.856;20.290;2022-10-26T04:48:34;99300.20;;;7.56;82.61
34235;BME280;20500;49.856;20.290;2022-10-26T04:51:39;99302.54;;;7.53;82.51
34235;BME280;20500;49.856;20.290;2022-10-26T04:54:45;99305.45;;;7.49;82.62
34235;BME280;20500;49.856;20.290;2022-10-26T04:57:51;99303.12;;;7.46;82.60
34235;BME280;20500;49.856;20.290;2022-10-26T05:01:02;99304.41;;;7.42;82.50
34235;BME280;20500;49.856;20.290;2022-10-26T05:04:08;99303.90;;;7.38;82.44
34235;BME280;20500;49.856;20.290;2022-10-26T05:07:14;99303.68;;;7.33;82.56
34235;BME280;20500;49.856;20.290;2022-10-26T05:10:19;99305.09;;;7.30;82.60
34235;BME280;20500;49.856;20.290;2022-10-26T05:13:25;99308.41;;;7.27;82.65
34235;BME280;20500;49.856;20.290;2022-10-26T05:16:35;99311.66;;;7.24;82.50
34235;BME280;20500;49.856;20.290;2022-10-26T05:19:41;99308.57;;;7.19;82.58
34235;BME280;20500;49.856;20.290;2022-10-26T05:22:52;99315.89;;;7.16;82.78
34235;BME280;20500;49.856;20.290;2022-10-26T05:25:58;99321.83;;;7.16;82.78
34235;BME280;20500;49.856;20.290;2022-10-26T05:29:03;99325.52;;;7.15;82.83
34235;BME280;20500;49.856;20.290;2022-10-26T05:32:09;99332.46;;;7.15;82.78
34235;BME280;20500;49.856;20.290;2022-10-26T05:35:14;99337.30;;;7.15;82.75
34235;BME280;20500;49.856;20.290;2022-10-26T05:38:20;99339.73;;;7.16;82.85
34235;BME280;20500;49.856;20.290;2022-10-26T05:41:26;99341.99;;;7.16;82.83
34235;BME280;20500;49.856;20.290;2022-10-26T05:44:31;99339.73;;;7.19;83.09
34235;BME280;20500;49.856;20.290;2022-10-26T05:47:39;99349.42;;;7.23;82.94
34235;BME280;20500;49.856;20.290;2022-10-26T05:50:45;99352.27;;;7.27;83.00
34235;BME280;20500;49.856;20.290;2022-10-26T05:53:53;99356.20;;;7.31;82.84
34235;BME280;20500;49.856;20.290;2022-10-26T05:56:59;99355.55;;;7.32;82.77
34235;BME280;20500;49.856;20.290;2022-10-26T06:00:08;99354.23;;;7.31;82.80
34235;BME280;20500;49.856;20.290;2022-10-26T06:03:24;99357.13;;;7.28;82.74
34235;BME280;20500;49.856;20.290;2022-10-26T06:06:40;99362.66;;;7.27;83.03
34235;BME280;20500;49.856;20.290;2022-10-26T06:09:49;99363.84;;;7.29;82.91
34235;BME280;20500;49.856;20.290;2022-10-26T06:12:56;99363.14;;;7.29;82.96
34235;BME280;20500;49.856;20.290;2022-10-26T06:16:22;99365.81;;;7.31;83.00
34235;BME280;20500;49.856;20.290;2022-10-26T06:19:44;99364.23;;;7.30;82.88
34235;BME280;20500;49.856;20.290;2022-10-26T06:23:01;99364.11;;;7.30;83.04
34235;BME280;20500;49.856;20.290;2022-10-26T06:26:15;99367.60;;;7.33;83.05
34235;BME280;20500;49.856;20.290;2022-10-26T06:29:31;99367.67;;;7.36;83.01
34235;BME280;20500;49.856;20.290;2022-10-26T06:32:42;99369.38;;;7.39;83.08
34235;BME280;20500;49.856;20.290;2022-10-26T06:35:57;99375.98;;;7.42;83.01
34235;BME280;20500;49.856;20.290;2022-10-26T06:39:09;99382.48;;;7.40;82.90
34235;BME280;20500;49.856;20.290;2022-10-26T06:42:16;99381.48;;;7.37;82.90
34235;BME280;20500;49.856;20.290;2022-10-26T06:45:23;99385.49;;;7.33;82.81
34235;BME280;20500;49.856;20.290;2022-10-26T06:48:29;99387.29;;;7.29;83.06
34235;BME280;20500;49.856;20.290;2022-10-26T06:51:44;99390.09;;;7.28;83.42
34235;BME280;20500;49.856;20.290;2022-10-26T06:54:53;99390.83;;;7.30;83.50
34235;BME280;20500;49.856;20.290;2022-10-26T06:57:59;99395.19;;;7.33;83.66
34235;BME280;20500;49.856;20.290;2022-10-26T07:01:07;99397.28;;;7.40;83.72
34235;BME280;20500;49.856;20.290;2022-10-26T07:04:15;99398.70;;;7.45;83.76
34235;BME280;20500;49.856;20.290;2022-10-26T07:07:21;99403.91;;;7.49;83.83
34235;BME280;20500;49.856;20.290;2022-10-26T07:10:28;99402.49;;;7.52;84.01
34235;BME280;20500;49.856;20.290;2022-10-26T07:13:33;99404.16;;;7.57;84.29
34235;BME280;20500;49.856;20.290;2022-10-26T07:16:39;99408.55;;;7.64;84.48
34235;BME280;20500;49.856;20.290;2022-10-26T07:19:44;99405.93;;;7.70;84.59
34235;BME280;20500;49.856;20.290;2022-10-26T07:22:53;99410.17;;;7.76;84.68
34235;BME280;20500;49.856;20.290;2022-10-26T07:26:01;99412.24;;;7.85;84.69
34235;BME280;20500;49.856;20.290;2022-10-26T07:29:06;99414.01;;;7.94;84.87
34235;BME280;20500;49.856;20.290;2022-10-26T07:32:12;99416.25;;;8.04;85.12
34235;BME280;20500;49.856;20.290;2022-10-26T07:35:17;99417.91;;;8.14;85.16
34235;BME280;20500;49.856;20.290;2022-10-26T07:38:23;99417.58;;;8.24;85.27
34235;BME280;20500;49.856;20.290;2022-10-26T07:41:29;99418.13;;;8.33;85.40
34235;BME280;20500;49.856;20.290;2022-10-26T07:44:34;99421.21;;;8.43;85.45
34235;BME280;20500;49.856;20.290;2022-10-26T07:47:40;99416.33;;;8.54;85.55
34235;BME280;20500;49.856;20.290;2022-10-26T07:50:45;99413.56;;;8.65;85.74
34235;BME280;20500;49.856;20.290;2022-10-26T07:53:51;99412.38;;;8.76;85.77
34235;BME280;20500;49.856;20.290;2022-10-26T07:56:56;99414.37;;;8.86;85.88
34235;BME280;20500;49.856;20.290;2022-10-26T08:00:02;99416.65;;;8.97;85.95
34235;BME280;20500;49.856;20.290;2022-10-26T08:03:08;99413.80;;;9.05;86.16
34235;BME280;20500;49.856;20.290;2022-10-26T08:06:14;99409.31;;;9.15;86.22
34235;BME280;20500;49.856;20.290;2022-10-26T08:09:19;99405.75;;;9.26;86.33
34235;BME280;20500;49.856;20.290;2022-10-26T08:12:25;99404.42;;;9.37;86.43
34235;BME280;20500;49.856;20.290;2022-10-26T08:15:30;99399.58;;;9.48;86.50
34235;BME280;20500;49.856;20.290;2022-10-26T08:18:36;99404.94;;;9.60;86.67
34235;BME280;20500;49.856;20.290;2022-10-26T08:21:41;99409.64;;;9.70;86.61
34235;BME280;20500;49.856;20.290;2022-10-26T08:24:47;99407.82;;;9.79;86.69
34235;BME280;20500;49.856;20.290;2022-10-26T08:27:52;99407.52;;;9.88;86.91
34235;BME280;20500;49.856;20.290;2022-10-26T08:30:59;99408.09;;;9.97;86.82
34235;BME280;20500;49.856;20.290;2022-10-26T08:34:05;99407.11;;;10.06;86.89
34235;BME280;20500;49.856;20.290;2022-10-26T08:37:11;99404.08;;;10.17;86.95
34235;BME280;20500;49.856;20.290;2022-10-26T08:40:17;99402.63;;;10.30;87.18
34235;BME280;20500;49.856;20.290;2022-10-26T08:43:29;99403.86;;;10.47;87.23
34235;BME280;20500;49.856;20.290;2022-10-26T08:46:40;99400.98;;;10.59;86.81
34235;BME280;20500;49.856;20.290;2022-10-26T08:49:53;99398.83;;;10.72;86.84
34235;BME280;20500;49.856;20.290;2022-10-26T08:53:10;99397.02;;;10.85;86.72
34235;BME280;20500;49.856;20.290;2022-10-26T08:56:19;99404.05;;;10.97;86.83
34235;BME280;20500;49.856;20.290;2022-10-26T08:59:30;99402.63;;;11.08;86.81
34235;BME280;20500;49.856;20.290;2022-10-26T09:02:39;99399.85;;;11.21;86.80
34235;BME280;20500;49.856;20.290;2022-10-26T09:05:59;99396.39;;;11.32;86.57
34235;BME280;20500;49.856;20.290;2022-10-26T09:09:14;99395.23;;;11.44;86.63
34235;BME280;20500;49.856;20.290;2022-10-26T09:12:30;99396.81;;;11.56;86.80
34235;BME280;20500;49.856;20.290;2022-10-26T09:15:51;99398.64;;;11.69;86.75
34235;BME280;20500;49.856;20.290;2022-10-26T09:19:24;99398.95;;;11.79;86.55
34235;BME280;20500;49.856;20.290;2022-10-26T09:22:43;99400.58;;;11.88;86.56
34235;BME280;20500;49.856;20.290;2022-10-26T09:25:58;99401.16;;;11.97;86.63
34235;BME280;20500;49.856;20.290;2022-10-26T09:29:08;99398.24;;;12.06;86.41
34235;BME280;20500;49.856;20.290;2022-10-26T09:32:18;99400.45;;;12.15;86.36
34235;BME280;20500;49.856;20.290;2022-10-26T09:35:26;99401.58;;;12.23;86.41
34235;BME280;20500;49.856;20.290;2022-10-26T09:38:35;99400.35;;;12.31;86.29
34235;BME280;20500;49.856;20.290;2022-10-26T09:41:47;99402.86;;;12.39;86.21
34235;BME280;20500;49.856;20.290;2022-10-26T09:44:56;99401.79;;;12.48;86.15
34235;BME280;20500;49.856;20.290;2022-10-26T09:48:09;99397.48;;;12.57;85.99
34235;BME280;20500;49.856;20.290;2022-10-26T09:51:17;99392.22;;;12.67;85.85
34235;BME280;20500;49.856;20.290;2022-10-26T09:54:22;99395.06;;;12.76;85.68
34235;BME280;20500;49.856;20.290;2022-10-26T09:57:29;99400.11;;;12.82;85.68
34235;BME280;20500;49.856;20.290;2022-10-26T10:00:34;99396.66;;;12.88;85.58
34235;BME280;20500;49.856;20.290;2022-10-26T10:03:42;99396.11;;;12.95;85.29
34235;BME280;20500;49.856;20.290;2022-10-26T10:06:48;99396.34;;;13.04;85.33
34235;BME280;20500;49.856;20.290;2022-10-26T10:10:13;99394.16;;;13.11;85.18
34235;BME280;20500;49.856;20.290;2022-10-26T10:13:22;99385.39;;;13.21;85.11
34235;BME280;20500;49.856;20.290;2022-10-26T10:16:28;99384.27;;;13.30;84.99
34235;BME280;20500;49.856;20.290;2022-10-26T10:19:35;99387.32;;;13.40;84.82
34235;BME280;20500;49.856;20.290;2022-10-26T10:22:55;99390.28;;;13.52;84.52
34235;BME280;20500;49.856;20.290;2022-10-26T10:26:03;99395.49;;;13.63;84.45
34235;BME280;20500;49.856;20.290;2022-10-26T10:29:15;99395.50;;;13.72;84.45
34235;BME280;20500;49.856;20.290;2022-10-26T10:32:23;99396.72;;;13.85;84.18
34235;BME280;20500;49.856;20.290;2022-10-26T10:35:30;99391.55;;;13.98;84.12
34235;BME280;20500;49.856;20.290;2022-10-26T10:38:41;99388.59;;;14.11;83.99
34235;BME280;20500;49.856;20.290;2022-10-26T10:41:47;99388.15;;;14.23;83.73
34235;BME280;20500;49.856;20.290;2022-10-26T10:44:56;99390.40;;;14.36;83.63
34235;BME280;20500;49.856;20.290;2022-10-26T10:48:11;99389.08;;;14.51;83.44
34235;BME280;20500;49.856;20.290;2022-10-26T10:51:22;99386.08;;;14.68;83.13
34235;BME280;20500;49.856;20.290;2022-10-26T10:54:31;99381.27;;;14.82;82.90
34235;BME280;20500;49.856;20.290;2022-10-26T10:57:44;99377.71;;;14.95;82.64
34235;BME280;20500;49.856;20.290;2022-10-26T11:00:54;99377.09;;;15.11;82.66
34235;BME280;20500;49.856;20.290;2022-10-26T11:04:27;99370.94;;;15.27;82.24
34235;BME280;20500;49.856;20.290;2022-10-26T11:07:43;99363.81;;;15.40;81.91
34235;BME280;20500;49.856;20.290;2022-10-26T11:10:51;99366.51;;;15.54;81.62
34235;BME280;20500;49.856;20.290;2022-10-26T11:14:02;99368.48;;;15.67;81.54
34235;BME280;20500;49.856;20.290;2022-10-26T11:17:15;99366.30;;;15.80;81.51
34235;BME280;20500;49.856;20.290;2022-10-26T11:20:26;99367.00;;;15.91;81.24
34235;BME280;20500;49.856;20.290;2022-10-26T11:23:37;99367.06;;;16.03;80.91
34235;BME280;20500;49.856;20.290;2022-10-26T11:26:49;99367.48;;;16.16;80.73
34235;BME280;20500;49.856;20.290;2022-10-26T11:30:02;99368.28;;;16.27;80.44
34235;BME280;20500;49.856;20.290;2022-10-26T11:33:13;99369.80;;;16.37;79.97
34235;BME280;20500;49.856;20.290;2022-10-26T11:36:25;99373.09;;;16.48;79.83
34235;BME280;20500;49.856;20.290;2022-10-26T11:39:39;99372.45;;;16.58;79.62
34235;BME280;20500;49.856;20.290;2022-10-26T11:42:50;99368.92;;;16.69;79.38
34235;BME280;20500;49.856;20.290;2022-10-26T11:46:04;99370.30;;;16.80;78.85
34235;BME280;20500;49.856;20.290;2022-10-26T11:49:16;99378.79;;;16.91;78.85
34235;BME280;20500;49.856;20.290;2022-10-26T11:52:26;99380.20;;;17.00;78.24
34235;BME280;20500;49.856;20.290;2022-10-26T11:55:34;99381.19;;;17.11;78.18
34235;BME280;20500;49.856;20.290;2022-10-26T11:58:40;99380.91;;;17.15;77.63
34235;BME280;20500;49.856;20.290;2022-10-26T12:01:48;99379.11;;;17.21;77.19
34235;BME280;20500;49.856;20.290;2022-10-26T12:04:58;99379.67;;;17.30;77.00
34235;BME280;20500;49.856;20.290;2022-10-26T12:08:12;99375.85;;;17.42;76.98
34235;BME280;20500;49.856;20.290;2022-10-26T12:11:29;99374.61;;;17.53;76.54
34235;BME280;20500;49.856;20.290;2022-10-26T12:14:43;99377.54;;;17.61;76.10
34235;BME280;20500;49.856;20.290;2022-10-26T12:17:55;99378.98;;;17.66;75.69
34235;BME280;20500;49.856;20.290;2022-10-26T12:21:06;99381.16;;;17.74;74.97
34235;BME280;20500;49.856;20.290;2022-10-26T12:24:30;99381.19;;;17.79;74.72
34235;BME280;20500;49.856;20.290;2022-10-26T12:27:54;99379.36;;;17.86;74.78
34235;BME280;20500;49.856;20.290;2022-10-26T12:35:02;99369.02;;;18.05;73.98
34235;BME280;20500;49.856;20.290;2022-10-26T12:42:27;99370.94;;;18.09;73.38
34235;BME280;20500;49.856;20.290;2022-10-26T12:45:33;99369.89;;;18.02;73.02
34235;BME280;20500;49.856;20.290;2022-10-26T12:48:41;99365.92;;;17.99;72.78
34235;BME280;20500;49.856;20.290;2022-10-26T12:51:48;99365.04;;;17.99;72.69
34235;BME280;20500;49.856;20.290;2022-10-26T12:59:09;99367.21;;;17.92;71.76
34235;BME280;20500;49.856;20.290;2022-10-26T13:02:36;99369.73;;;17.88;71.47
34235;BME280;20500;49.856;20.290;2022-10-26T13:06:15;99369.68;;;17.84;71.16
34235;BME280;20500;49.856;20.290;2022-10-26T13:09:26;99371.22;;;17.82;70.73
34235;BME280;20500;49.856;20.290;2022-10-26T13:12:44;99375.94;;;17.78;70.50
34235;BME280;20500;49.856;20.290;2022-10-26T13:15:55;99373.61;;;17.78;70.33
34235;BME280;20500;49.856;20.290;2022-10-26T13:19:01;99374.19;;;17.80;69.74
34235;BME280;20500;49.856;20.290;2022-10-26T13:22:14;99374.19;;;17.81;69.65
34235;BME280;20500;49.856;20.290;2022-10-26T13:25:23;99377.25;;;17.80;69.57
34235;BME280;20500;49.856;20.290;2022-10-26T13:28:42;99374.63;;;17.78;69.33
34235;BME280;20500;49.856;20.290;2022-10-26T13:31:55;99375.61;;;17.77;69.08
34235;BME280;20500;49.856;20.290;2022-10-26T13:35:02;99378.17;;;17.76;69.08
34235;BME280;20500;49.856;20.290;2022-10-26T13:38:09;99379.38;;;17.73;68.62
34235;BME280;20500;49.856;20.290;2022-10-26T13:41:29;99378.14;;;17.67;68.31
34235;BME280;20500;49.856;20.290;2022-10-26T13:44:41;99379.27;;;17.62;67.94
34235;BME280;20500;49.856;20.290;2022-10-26T13:47:53;99379.92;;;17.58;67.96
34235;BME280;20500;49.856;20.290;2022-10-26T13:51:02;99379.52;;;17.56;67.72
34235;BME280;20500;49.856;20.290;2022-10-26T13:54:18;99380.77;;;17.54;67.58
34235;BME280;20500;49.856;20.290;2022-10-26T13:57:29;99384.02;;;17.51;67.46
34235;BME280;20500;49.856;20.290;2022-10-26T14:00:38;99389.24;;;17.48;67.47
34235;BME280;20500;49.856;20.290;2022-10-26T14:03:42;99388.86;;;17.47;67.27
34235;BME280;20500;49.856;20.290;2022-10-26T14:06:50;99385.08;;;17.44;67.19
34235;BME280;20500;49.856;20.290;2022-10-26T14:09:57;99386.23;;;17.41;67.05
34235;BME280;20500;49.856;20.290;2022-10-26T14:13:07;99383.13;;;17.34;66.81
34235;BME280;20500;49.856;20.290;2022-10-26T14:16:16;99383.58;;;17.27;66.81
34235;BME280;20500;49.856;20.290;2022-10-26T14:19:27;99383.45;;;17.18;66.56
34235;BME280;20500;49.856;20.290;2022-10-26T14:22:33;99388.21;;;17.12;66.72
34235;BME280;20500;49.856;20.290;2022-10-26T14:25:39;99384.92;;;17.06;66.71
34235;BME280;20500;49.856;20.290;2022-10-26T14:28:53;99386.52;;;16.97;66.49
34235;BME280;20500;49.856;20.290;2022-10-26T14:31:58;99390.14;;;16.90;66.33
34235;BME280;20500;49.856;20.290;2022-10-26T14:35:09;99394.94;;;16.83;66.26
34235;BME280;20500;49.856;20.290;2022-10-26T14:38:18;99399.00;;;16.76;66.20
34235;BME280;20500;49.856;20.290;2022-10-26T14:41:27;99399.96;;;16.68;66.23
34235;BME280;20500;49.856;20.290;2022-10-26T14:44:37;99399.45;;;16.59;66.12
34235;BME280;20500;49.856;20.290;2022-10-26T14:47:44;99401.16;;;16.48;65.98
34235;BME280;20500;49.856;20.290;2022-10-26T14:51:00;99404.92;;;16.39;66.10
34235;BME280;20500;49.856;20.290;2022-10-26T14:54:20;99406.94;;;16.26;65.94
34235;BME280;20500;49.856;20.290;2022-10-26T14:57:34;99406.05;;;16.11;65.86
34235;BME280;20500;49.856;20.290;2022-10-26T15:00:40;99410.17;;;15.99;66.07
34235;BME280;20500;49.856;20.290;2022-10-26T15:03:50;99412.05;;;15.85;66.05
34235;BME280;20500;49.856;20.290;2022-10-26T15:07:07;99414.14;;;15.73;66.27
34235;BME280;20500;49.856;20.290;2022-10-26T15:10:45;99415.70;;;15.59;66.49
34235;BME280;20500;49.856;20.290;2022-10-26T15:13:52;99421.36;;;15.45;66.64
34235;BME280;20500;49.856;20.290;2022-10-26T15:16:58;99422.61;;;15.33;66.67
34235;BME280;20500;49.856;20.290;2022-10-26T15:20:10;99424.88;;;15.23;66.65
34235;BME280;20500;49.856;20.290;2022-10-26T15:23:19;99429.75;;;15.09;66.77
34235;BME280;20500;49.856;20.290;2022-10-26T15:26:25;99429.11;;;14.94;66.90
34235;BME280;20500;49.856;20.290;2022-10-26T15:29:37;99434.27;;;14.79;66.93
34235;BME280;20500;49.856;20.290;2022-10-26T15:32:43;99434.60;;;14.64;67.03
34235;BME280;20500;49.856;20.290;2022-10-26T15:35:48;99438.60;;;14.53;67.21
34235;BME280;20500;49.856;20.290;2022-10-26T15:38:54;99439.27;;;14.42;67.36
34235;BME280;20500;49.856;20.290;2022-10-26T15:42:00;99442.59;;;14.34;67.67
34235;BME280;20500;49.856;20.290;2022-10-26T15:45:15;99443.77;;;14.25;67.60
34235;BME280;20500;49.856;20.290;2022-10-26T15:48:24;99450.90;;;14.09;67.62
34235;BME280;20500;49.856;20.290;2022-10-26T15:51:32;99454.28;;;13.97;67.93
34235;BME280;20500;49.856;20.290;2022-10-26T15:54:38;99451.68;;;13.86;67.87
34235;BME280;20500;49.856;20.290;2022-10-26T15:57:44;99453.47;;;13.74;67.94
34235;BME280;20500;49.856;20.290;2022-10-26T16:00:50;99457.70;;;13.57;67.95
34235;BME280;20500;49.856;20.290;2022-10-26T16:03:56;99461.44;;;13.43;68.32
34235;BME280;20500;49.856;20.290;2022-10-26T16:07:02;99460.92;;;13.33;68.42
34235;BME280;20500;49.856;20.290;2022-10-26T16:10:20;99463.52;;;13.20;68.39
34235;BME280;20500;49.856;20.290;2022-10-26T16:13:26;99461.46;;;13.09;68.61
34235;BME280;20500;49.856;20.290;2022-10-26T16:16:31;99467.04;;;13.02;68.71
34235;BME280;20500;49.856;20.290;2022-10-26T16:19:37;99466.65;;;12.96;68.70
34235;BME280;20500;49.856;20.290;2022-10-26T16:22:43;99470.54;;;12.88;68.90
34235;BME280;20500;49.856;20.290;2022-10-26T16:25:51;99473.98;;;12.78;68.94
34235;BME280;20500;49.856;20.290;2022-10-26T16:28:57;99471.42;;;12.69;69.10
34235;BME280;20500;49.856;20.290;2022-10-26T16:32:02;99475.55;;;12.62;69.20
34235;BME280;20500;49.856;20.290;2022-10-26T16:35:09;99479.25;;;12.53;69.24
34235;BME280;20500;49.856;20.290;2022-10-26T16:38:15;99479.20;;;12.39;69.14
34235;BME280;20500;49.856;20.290;2022-10-26T16:41:21;99481.27;;;12.30;69.32
34235;BME280;20500;49.856;20.290;2022-10-26T16:44:31;99487.26;;;12.15;69.28
34235;BME280;20500;49.856;20.290;2022-10-26T16:47:36;99487.94;;;12.00;69.52
34235;BME280;20500;49.856;20.290;2022-10-26T16:50:43;99492.73;;;11.88;69.65
34235;BME280;20500;49.856;20.290;2022-10-26T16:53:50;99498.31;;;11.76;69.63